sensor_id;sensor_type;location;lat;lon;timestamp;P1;P2;P0
73148;PMS7003;61346;48.930;2.266;2022-08-01T00:00:43;1.00;1.00;1.00
73148;PMS7003;61346;48.930;2.266;2022-08-01T00:03:09;1.00;1.00;1.00
73148;PMS7003;61346;48.930;2.266;2022-08-01T00:05:34;1.00;1.00;1.00
73148;PMS7003;61346;48.930;2.266;2022-08-01T00:08:00;1.00;1.00;0.75
73148;PMS7003;61346;48.930;2.266;2022-08-01T00:10:25;1.00;1.00;0.50
73148;PMS7003;61346;48.930;2.266;2022-08-01T00:12:50;0.00;0.00;0.00
73148;PMS7003;61346;48.930;2.266;2022-08-01T00:15:16;0.75;0.75;0.25
73148;PMS7003;61346;48.930;2.266;2022-08-01T00:17:45;0.00;0.00;0.00
73148;PMS7003;61346;48.930;2.266;2022-08-01T00:20:12;1.75;1.00;1.00
73148;PMS7003;61346;48.930;2.266;2022-08-01T00:22:38;1.00;1.00;1.00
73148;PMS7003;61346;48.930;2.266;2022-08-01T00:25:04;1.00;1.00;1.00
73148;PMS7003;61346;48.930;2.266;2022-08-01T00:27:31;1.00;1.00;1.00
73148;PMS7003;61346;48.930;2.266;2022-08-01T00:29:57;1.75;1.00;1.00
73148;PMS7003;61346;48.930;2.266;2022-08-01T00:32:25;1.50;1.50;1.00
73148;PMS7003;61346;48.930;2.266;2022-08-01T00:34:51;0.00;0.00;0.00
73148;PMS7003;61346;48.930;2.266;2022-08-01T00:37:16;2.00;2.00;1.75
73148;PMS7003;61346;48.930;2.266;2022-08-01T00:39:42;1.00;1.00;1.00
73148;PMS7003;61346;48.930;2.266;2022-08-01T00:42:11;0.00;0.00;0.00
73148;PMS7003;61346;48.930;2.266;2022-08-01T00:44:40;0.50;0.00;0.00
73148;PMS7003;61346;48.930;2.266;2022-08-01T00:47:06;0.00;0.00;0.00
73148;PMS7003;61346;48.930;2.266;2022-08-01T00:49:32;0.75;0.75;0.50
73148;PMS7003;61346;48.930;2.266;2022-08-01T00:51:57;0.00;0.00;0.00
73148;PMS7003;61346;48.930;2.266;2022-08-01T00:54:24;1.00;1.00;1.00
73148;PMS7003;61346;48.930;2.266;2022-08-01T00:56:51;0.00;0.00;0.00
73148;PMS7003;61346;48.930;2.266;2022-08-01T00:59:17;0.00;0.00;0.00
73148;PMS7003;61346;48.930;2.266;2022-08-01T01:01:43;0.00;0.00;0.00
73148;PMS7003;61346;48.930;2.266;2022-08-01T01:04:08;1.00;1.00;0.50
73148;PMS7003;61346;48.930;2.266;2022-08-01T01:06:45;1.75;0.75;0.25
73148;PMS7003;61346;48.930;2.266;2022-08-01T01:12:25;1.00;1.00;1.00
73148;PMS7003;61346;48.930;2.266;2022-08-01T01:18:07;1.00;1.00;1.00
73148;PMS7003;61346;48.930;2.266;2022-08-01T01:20:37;0.50;0.50;0.25
73148;PMS7003;61346;48.930;2.266;2022-08-01T01:31:43;0.50;0.50;0.25
73148;PMS7003;61346;48.930;2.266;2022-08-01T01:34:13;1.00;1.00;1.00
73148;PMS7003;61346;48.930;2.266;2022-08-01T01:36:42;0.50;0.50;0.00
73148;PMS7003;61346;48.930;2.266;2022-08-01T01:39:09;0.00;0.00;0.00
73148;PMS7003;61346;48.930;2.266;2022-08-01T01:41:36;1.00;1.00;0.00
73148;PMS7003;61346;48.930;2.266;2022-08-01T01:44:04;0.00;0.00;0.00
73148;PMS7003;61346;48.930;2.266;2022-08-01T01:46:30;0.00;0.00;0.00
73148;PMS7003;61346;48.930;2.266;2022-08-01T01:48:57;1.00;1.00;0.00
73148;PMS7003;61346;48.930;2.266;2022-08-01T01:51:24;0.25;0.25;0.00
73148;PMS7003;61346;48.930;2.266;2022-08-01T01:53:52;0.00;0.00;0.00
73148;PMS7003;61346;48.930;2.266;2022-08-01T01:56:19;1.00;1.00;0.75
73148;PMS7003;61346;48.930;2.266;2022-08-01T01:58:48;1.00;1.00;0.00
73148;PMS7003;61346;48.930;2.266;2022-08-01T02:01:17;0.50;0.50;0.50
73148;PMS7003;61346;48.930;2.266;2022-08-01T02:03:45;1.00;1.00;1.00
73148;PMS7003;61346;48.930;2.266;2022-08-01T02:06:12;1.00;1.00;1.00
73148;PMS7003;61346;48.930;2.266;2022-08-01T02:08:39;3.00;0.75;0.75
73148;PMS7003;61346;48.930;2.266;2022-08-01T02:11:06;0.75;0.75;0.75
73148;PMS7003;61346;48.930;2.266;2022-08-01T02:13:44;0.75;0.75;0.75
73148;PMS7003;61346;48.930;2.266;2022-08-01T02:16:14;2.75;1.50;1.00
73148;PMS7003;61346;48.930;2.266;2022-08-01T02:18:41;1.00;1.00;1.00
73148;PMS7003;61346;48.930;2.266;2022-08-01T02:21:10;0.75;0.75;0.50
73148;PMS7003;61346;48.930;2.266;2022-08-01T02:23:38;0.00;0.00;0.00
73148;PMS7003;61346;48.930;2.266;2022-08-01T02:26:08;0.00;0.00;0.00
73148;PMS7003;61346;48.930;2.266;2022-08-01T02:28:42;1.25;1.25;1.00
73148;PMS7003;61346;48.930;2.266;2022-08-01T02:31:13;0.00;0.00;0.00
73148;PMS7003;61346;48.930;2.266;2022-08-01T02:33:44;0.00;0.00;0.00
73148;PMS7003;61346;48.930;2.266;2022-08-01T02:36:15;0.25;0.00;0.00
73148;PMS7003;61346;48.930;2.266;2022-08-01T02:38:43;0.00;0.00;0.00
73148;PMS7003;61346;48.930;2.266;2022-08-01T02:41:11;0.00;0.00;0.00
73148;PMS7003;61346;48.930;2.266;2022-08-01T02:43:46;0.00;0.00;0.00
73148;PMS7003;61346;48.930;2.266;2022-08-01T02:46:23;0.75;0.75;0.50
73148;PMS7003;61346;48.930;2.266;2022-08-01T02:48:56;0.50;0.50;0.00
73148;PMS7003;61346;48.930;2.266;2022-08-01T02:51:24;0.00;0.00;0.00
73148;PMS7003;61346;48.930;2.266;2022-08-01T02:53:52;0.00;0.00;0.00
73148;PMS7003;61346;48.930;2.266;2022-08-01T02:56:19;2.75;1.00;0.75
73148;PMS7003;61346;48.930;2.266;2022-08-01T02:58:47;0.00;0.00;0.00
73148;PMS7003;61346;48.930;2.266;2022-08-01T03:01:15;0.50;0.50;0.00
73148;PMS7003;61346;48.930;2.266;2022-08-01T03:03:42;0.00;0.00;0.00
73148;PMS7003;61346;48.930;2.266;2022-08-01T03:06:10;0.75;0.75;0.00
73148;PMS7003;61346;48.930;2.266;2022-08-01T03:08:37;1.50;1.00;1.00
73148;PMS7003;61346;48.930;2.266;2022-08-01T03:11:04;0.00;0.00;0.00
73148;PMS7003;61346;48.930;2.266;2022-08-01T03:13:34;0.75;0.75;0.75
73148;PMS7003;61346;48.930;2.266;2022-08-01T03:16:00;0.00;0.00;0.00
73148;PMS7003;61346;48.930;2.266;2022-08-01T03:18:27;1.00;1.00;1.00
73148;PMS7003;61346;48.930;2.266;2022-08-01T03:20:57;0.25;0.25;0.25
73148;PMS7003;61346;48.930;2.266;2022-08-01T03:23:25;1.75;1.00;0.75
73148;PMS7003;61346;48.930;2.266;2022-08-01T03:25:54;1.75;1.00;1.00
73148;PMS7003;61346;48.930;2.266;2022-08-01T03:28:22;0.50;0.50;0.00
73148;PMS7003;61346;48.930;2.266;2022-08-01T03:30:50;0.00;0.00;0.00
73148;PMS7003;61346;48.930;2.266;2022-08-01T03:33:19;1.00;1.00;0.50
73148;PMS7003;61346;48.930;2.266;2022-08-01T03:35:52;1.00;1.00;0.50
73148;PMS7003;61346;48.930;2.266;2022-08-01T03:38:22;1.00;1.00;1.00
73148;PMS7003;61346;48.930;2.266;2022-08-01T03:40:51;1.75;1.00;1.00
73148;PMS7003;61346;48.930;2.266;2022-08-01T03:43:22;1.25;0.50;0.00
73148;PMS7003;61346;48.930;2.266;2022-08-01T03:46:01;0.00;0.00;0.00
73148;PMS7003;61346;48.930;2.266;2022-08-01T03:48:35;0.00;0.00;0.00
73148;PMS7003;61346;48.930;2.266;2022-08-01T03:51:04;2.75;1.00;0.25
73148;PMS7003;61346;48.930;2.266;2022-08-01T03:53:32;0.00;0.00;0.00
73148;PMS7003;61346;48.930;2.266;2022-08-01T03:56:00;1.00;1.00;1.00
73148;PMS7003;61346;48.930;2.266;2022-08-01T03:58:28;1.00;1.00;1.00
73148;PMS7003;61346;48.930;2.266;2022-08-01T04:00:58;1.50;1.00;0.25
73148;PMS7003;61346;48.930;2.266;2022-08-01T04:03:24;0.25;0.25;0.25
73148;PMS7003;61346;48.930;2.266;2022-08-01T04:05:50;1.50;1.00;1.00
73148;PMS7003;61346;48.930;2.266;2022-08-01T04:08:16;1.00;0.00;0.00
73148;PMS7003;61346;48.930;2.266;2022-08-01T04:10:41;0.50;0.50;0.50
73148;PMS7003;61346;48.930;2.266;2022-08-01T04:13:10;1.00;1.00;0.25
73148;PMS7003;61346;48.930;2.266;2022-08-01T04:15:35;0.75;0.75;0.75
73148;PMS7003;61346;48.930;2.266;2022-08-01T04:18:01;1.00;1.00;1.00
73148;PMS7003;61346;48.930;2.266;2022-08-01T04:20:26;1.00;1.00;1.00
73148;PMS7003;61346;48.930;2.266;2022-08-01T04:22:56;2.00;1.00;0.00
73148;PMS7003;61346;48.930;2.266;2022-08-01T04:25:23;1.00;1.00;0.50
73148;PMS7003;61346;48.930;2.266;2022-08-01T04:27:53;1.25;1.00;1.00
73148;PMS7003;61346;48.930;2.266;2022-08-01T04:30:25;1.00;1.00;0.75
73148;PMS7003;61346;48.930;2.266;2022-08-01T04:32:55;0.00;0.00;0.00
73148;PMS7003;61346;48.930;2.266;2022-08-01T04:35:25;1.25;1.25;1.00
73148;PMS7003;61346;48.930;2.266;2022-08-01T04:37:52;1.00;1.00;1.00
73148;PMS7003;61346;48.930;2.266;2022-08-01T04:40:22;2.00;1.00;0.50
73148;PMS7003;61346;48.930;2.266;2022-08-01T04:42:51;1.00;0.50;0.50
73148;PMS7003;61346;48.930;2.266;2022-08-01T04:45:18;3.00;1.00;1.00
73148;PMS7003;61346;48.930;2.266;2022-08-01T04:47:46;2.25;1.00;1.00
73148;PMS7003;61346;48.930;2.266;2022-08-01T04:50:15;0.75;0.75;0.75
73148;PMS7003;61346;48.930;2.266;2022-08-01T04:52:42;1.00;1.00;1.00
73148;PMS7003;61346;48.930;2.266;2022-08-01T04:55:07;1.00;1.00;0.25
73148;PMS7003;61346;48.930;2.266;2022-08-01T04:57:37;2.00;1.00;0.25
73148;PMS7003;61346;48.930;2.266;2022-08-01T05:00:06;1.00;0.00;0.00
73148;PMS7003;61346;48.930;2.266;2022-08-01T05:02:33;0.25;0.25;0.25
73148;PMS7003;61346;48.930;2.266;2022-08-01T05:04:58;1.00;1.00;1.00
73148;PMS7003;61346;48.930;2.266;2022-08-01T05:07:24;1.25;1.00;1.00
73148;PMS7003;61346;48.930;2.266;2022-08-01T05:09:54;1.00;1.00;1.00
73148;PMS7003;61346;48.930;2.266;2022-08-01T05:12:19;1.75;1.75;1.00
73148;PMS7003;61346;48.930;2.266;2022-08-01T05:14:46;1.00;1.00;1.00
73148;PMS7003;61346;48.930;2.266;2022-08-01T05:17:12;0.50;0.50;0.50
73148;PMS7003;61346;48.930;2.266;2022-08-01T05:19:39;1.00;0.50;0.50
73148;PMS7003;61346;48.930;2.266;2022-08-01T05:22:08;2.00;2.00;2.00
73148;PMS7003;61346;48.930;2.266;2022-08-01T05:24:36;1.00;1.00;0.50
73148;PMS7003;61346;48.930;2.266;2022-08-01T05:27:04;0.50;0.50;0.25
73148;PMS7003;61346;48.930;2.266;2022-08-01T05:29:31;1.75;1.00;0.50
73148;PMS7003;61346;48.930;2.266;2022-08-01T05:31:57;1.75;1.75;1.00
73148;PMS7003;61346;48.930;2.266;2022-08-01T05:34:24;0.25;0.25;0.00
73148;PMS7003;61346;48.930;2.266;2022-08-01T05:36:51;0.00;0.00;0.00
73148;PMS7003;61346;48.930;2.266;2022-08-01T05:39:16;1.00;1.00;1.00
73148;PMS7003;61346;48.930;2.266;2022-08-01T05:41:42;2.25;1.00;0.75
73148;PMS7003;61346;48.930;2.266;2022-08-01T05:44:07;0.00;0.00;0.00
73148;PMS7003;61346;48.930;2.266;2022-08-01T05:46:36;1.50;0.75;0.50
73148;PMS7003;61346;48.930;2.266;2022-08-01T05:49:03;1.00;1.00;0.25
73148;PMS7003;61346;48.930;2.266;2022-08-01T05:51:31;2.00;1.25;0.50
73148;PMS7003;61346;48.930;2.266;2022-08-01T05:53:59;1.00;1.00;1.00
73148;PMS7003;61346;48.930;2.266;2022-08-01T05:56:25;1.00;1.00;1.00
73148;PMS7003;61346;48.930;2.266;2022-08-01T05:58:51;3.25;1.00;1.00
73148;PMS7003;61346;48.930;2.266;2022-08-01T06:01:17;1.00;1.00;1.00
73148;PMS7003;61346;48.930;2.266;2022-08-01T06:03:47;1.00;1.00;1.00
73148;PMS7003;61346;48.930;2.266;2022-08-01T06:06:17;1.25;1.25;1.00
73148;PMS7003;61346;48.930;2.266;2022-08-01T06:08:42;1.00;1.00;0.75
73148;PMS7003;61346;48.930;2.266;2022-08-01T06:11:08;1.00;1.00;1.00
73148;PMS7003;61346;48.930;2.266;2022-08-01T06:13:33;2.00;1.00;0.25
73148;PMS7003;61346;48.930;2.266;2022-08-01T06:15:59;1.00;1.00;1.00
73148;PMS7003;61346;48.930;2.266;2022-08-01T06:18:24;0.00;0.00;0.00
73148;PMS7003;61346;48.930;2.266;2022-08-01T06:20:50;0.25;0.25;0.00
73148;PMS7003;61346;48.930;2.266;2022-08-01T06:23:15;1.00;1.00;1.00
73148;PMS7003;61346;48.930;2.266;2022-08-01T06:25:44;3.50;1.25;1.25
73148;PMS7003;61346;48.930;2.266;2022-08-01T06:28:13;1.00;1.00;1.00
73148;PMS7003;61346;48.930;2.266;2022-08-01T06:33:25;7.75;5.00;3.00
73148;PMS7003;61346;48.930;2.266;2022-08-01T06:35:51;1.00;1.00;1.00
73148;PMS7003;61346;48.930;2.266;2022-08-01T06:38:16;1.25;1.25;1.00
73148;PMS7003;61346;48.930;2.266;2022-08-01T06:40:41;3.00;1.75;1.00
73148;PMS7003;61346;48.930;2.266;2022-08-01T06:43:07;2.00;2.00;1.75
73148;PMS7003;61346;48.930;2.266;2022-08-01T06:45:32;3.00;3.00;2.25
73148;PMS7003;61346;48.930;2.266;2022-08-01T06:47:58;2.00;1.00;0.50
73148;PMS7003;61346;48.930;2.266;2022-08-01T06:50:23;2.25;2.25;2.00
73148;PMS7003;61346;48.930;2.266;2022-08-01T06:52:49;2.00;2.00;2.00
73148;PMS7003;61346;48.930;2.266;2022-08-01T06:55:14;2.00;2.00;2.00
73148;PMS7003;61346;48.930;2.266;2022-08-01T06:57:51;4.00;3.00;2.00
73148;PMS7003;61346;48.930;2.266;2022-08-01T07:00:18;3.75;3.00;2.00
73148;PMS7003;61346;48.930;2.266;2022-08-01T07:02:47;4.00;4.00;3.00
73148;PMS7003;61346;48.930;2.266;2022-08-01T07:05:14;3.75;3.00;2.75
73148;PMS7003;61346;48.930;2.266;2022-08-01T07:07:42;5.25;5.00;4.00
73148;PMS7003;61346;48.930;2.266;2022-08-01T07:10:09;3.75;3.75;3.25
73148;PMS7003;61346;48.930;2.266;2022-08-01T07:12:35;5.25;4.75;4.00
73148;PMS7003;61346;48.930;2.266;2022-08-01T07:15:04;5.25;5.00;4.00
73148;PMS7003;61346;48.930;2.266;2022-08-01T07:17:30;6.00;3.75;3.00
73148;PMS7003;61346;48.930;2.266;2022-08-01T07:19:55;5.75;4.00;3.00
73148;PMS7003;61346;48.930;2.266;2022-08-01T07:22:20;7.00;4.25;3.25
73148;PMS7003;61346;48.930;2.266;2022-08-01T07:24:47;4.25;4.25;3.25
73148;PMS7003;61346;48.930;2.266;2022-08-01T07:27:13;5.50;4.50;3.25
73148;PMS7003;61346;48.930;2.266;2022-08-01T07:29:38;6.75;5.25;3.75
73148;PMS7003;61346;48.930;2.266;2022-08-01T07:32:03;2.75;2.75;2.00
73148;PMS7003;61346;48.930;2.266;2022-08-01T07:34:29;8.00;6.50;5.25
73148;PMS7003;61346;48.930;2.266;2022-08-01T07:36:55;5.75;4.75;3.25
73148;PMS7003;61346;48.930;2.266;2022-08-01T07:39:20;5.50;5.50;3.50
73148;PMS7003;61346;48.930;2.266;2022-08-01T07:41:46;7.00;6.00;4.75
73148;PMS7003;61346;48.930;2.266;2022-08-01T07:44:12;7.50;5.00;5.00
73148;PMS7003;61346;48.930;2.266;2022-08-01T07:46:37;6.00;5.00;3.50
73148;PMS7003;61346;48.930;2.266;2022-08-01T07:49:03;6.00;6.00;5.00
73148;PMS7003;61346;48.930;2.266;2022-08-01T07:51:28;7.00;5.75;4.00
73148;PMS7003;61346;48.930;2.266;2022-08-01T07:53:53;5.75;4.75;3.00
73148;PMS7003;61346;48.930;2.266;2022-08-01T07:56:19;6.75;5.75;4.00
73148;PMS7003;61346;48.930;2.266;2022-08-01T07:58:44;5.00;4.00;4.00
73148;PMS7003;61346;48.930;2.266;2022-08-01T08:01:11;5.75;5.00;4.00
73148;PMS7003;61346;48.930;2.266;2022-08-01T08:03:37;5.50;5.50;4.00
73148;PMS7003;61346;48.930;2.266;2022-08-01T08:06:05;6.00;5.00;3.75
73148;PMS7003;61346;48.930;2.266;2022-08-01T08:08:31;5.00;4.50;4.00
73148;PMS7003;61346;48.930;2.266;2022-08-01T08:10:56;4.50;4.00;4.00
73148;PMS7003;61346;48.930;2.266;2022-08-01T08:13:21;4.25;4.00;4.00
73148;PMS7003;61346;48.930;2.266;2022-08-01T08:15:47;5.00;4.00;3.00
73148;PMS7003;61346;48.930;2.266;2022-08-01T08:18:13;4.00;4.00;3.00
73148;PMS7003;61346;48.930;2.266;2022-08-01T08:20:38;5.25;5.00;3.50
73148;PMS7003;61346;48.930;2.266;2022-08-01T08:23:04;4.00;4.00;3.25
73148;PMS7003;61346;48.930;2.266;2022-08-01T08:25:49;4.50;4.50;3.50
73148;PMS7003;61346;48.930;2.266;2022-08-01T08:28:14;5.25;3.75;2.75
73148;PMS7003;61346;48.930;2.266;2022-08-01T08:30:40;6.00;3.75;3.25
73148;PMS7003;61346;48.930;2.266;2022-08-01T08:33:05;3.00;3.00;2.25
73148;PMS7003;61346;48.930;2.266;2022-08-01T08:35:31;5.00;5.00;3.50
73148;PMS7003;61346;48.930;2.266;2022-08-01T08:37:57;5.00;3.50;3.00
73148;PMS7003;61346;48.930;2.266;2022-08-01T08:40:22;4.50;4.50;3.00
73148;PMS7003;61346;48.930;2.266;2022-08-01T08:42:55;5.00;5.00;3.00
73148;PMS7003;61346;48.930;2.266;2022-08-01T08:45:21;3.00;3.00;2.25
73148;PMS7003;61346;48.930;2.266;2022-08-01T08:47:47;6.75;4.25;4.00
73148;PMS7003;61346;48.930;2.266;2022-08-01T08:50:15;2.50;2.25;1.00
73148;PMS7003;61346;48.930;2.266;2022-08-01T08:52:41;5.00;4.00;4.00
73148;PMS7003;61346;48.930;2.266;2022-08-01T08:55:08;4.75;4.75;3.00
73148;PMS7003;61346;48.930;2.266;2022-08-01T08:57:39;5.00;3.25;2.75
73148;PMS7003;61346;48.930;2.266;2022-08-01T09:00:05;4.00;4.00;3.25
73148;PMS7003;61346;48.930;2.266;2022-08-01T09:02:34;3.00;3.00;2.50
73148;PMS7003;61346;48.930;2.266;2022-08-01T09:05:00;4.25;4.25;3.25
73148;PMS7003;61346;48.930;2.266;2022-08-01T09:07:27;4.75;4.00;3.00
73148;PMS7003;61346;48.930;2.266;2022-08-01T09:09:52;4.00;4.00;3.75
73148;PMS7003;61346;48.930;2.266;2022-08-01T09:12:18;4.25;4.25;3.00
73148;PMS7003;61346;48.930;2.266;2022-08-01T09:14:45;5.50;4.00;3.00
73148;PMS7003;61346;48.930;2.266;2022-08-01T09:17:12;4.00;2.75;2.00
73148;PMS7003;61346;48.930;2.266;2022-08-01T09:19:43;4.50;3.00;3.00
73148;PMS7003;61346;48.930;2.266;2022-08-01T09:22:23;4.00;4.00;3.00
73148;PMS7003;61346;48.930;2.266;2022-08-01T09:25:00;4.00;4.00;3.00
73148;PMS7003;61346;48.930;2.266;2022-08-01T09:27:33;5.25;4.50;3.00
73148;PMS7003;61346;48.930;2.266;2022-08-01T09:30:15;4.00;4.00;3.00
73148;PMS7003;61346;48.930;2.266;2022-08-01T09:32:58;3.25;3.25;2.00
73148;PMS7003;61346;48.930;2.266;2022-08-01T09:35:29;2.75;2.75;2.00
73148;PMS7003;61346;48.930;2.266;2022-08-01T09:38:12;4.00;3.00;2.00
73148;PMS7003;61346;48.930;2.266;2022-08-01T09:40:52;3.25;3.25;3.00
73148;PMS7003;61346;48.930;2.266;2022-08-01T09:43:20;3.00;3.00;3.00
73148;PMS7003;61346;48.930;2.266;2022-08-01T09:45:47;3.00;3.00;2.00
73148;PMS7003;61346;48.930;2.266;2022-08-01T09:48:13;4.25;4.25;3.00
73148;PMS7003;61346;48.930;2.266;2022-08-01T09:50:39;4.00;2.75;2.00
73148;PMS7003;61346;48.930;2.266;2022-08-01T09:53:11;2.00;2.00;1.00
73148;PMS7003;61346;48.930;2.266;2022-08-01T09:55:37;3.25;3.00;2.25
73148;PMS7003;61346;48.930;2.266;2022-08-01T09:58:04;2.00;2.00;1.00
73148;PMS7003;61346;48.930;2.266;2022-08-01T10:00:30;3.50;3.50;2.25
73148;PMS7003;61346;48.930;2.266;2022-08-01T10:02:56;4.25;4.25;3.00
73148;PMS7003;61346;48.930;2.266;2022-08-01T10:05:32;3.50;3.50;3.00
73148;PMS7003;61346;48.930;2.266;2022-08-01T10:08:00;3.75;3.75;3.00
73148;PMS7003;61346;48.930;2.266;2022-08-01T10:10:28;4.75;3.75;3.25
73148;PMS7003;61346;48.930;2.266;2022-08-01T10:12:55;3.00;3.00;2.00
73148;PMS7003;61346;48.930;2.266;2022-08-01T10:15:21;4.00;3.00;2.50
73148;PMS7003;61346;48.930;2.266;2022-08-01T10:17:53;4.00;4.00;3.00
73148;PMS7003;61346;48.930;2.266;2022-08-01T10:20:24;3.25;3.25;3.00
73148;PMS7003;61346;48.930;2.266;2022-08-01T10:22:52;4.00;4.00;3.00
73148;PMS7003;61346;48.930;2.266;2022-08-01T10:25:18;7.00;5.00;4.00
73148;PMS7003;61346;48.930;2.266;2022-08-01T10:27:46;6.00;3.00;3.00
73148;PMS7003;61346;48.930;2.266;2022-08-01T10:30:15;5.75;4.00;3.00
73148;PMS7003;61346;48.930;2.266;2022-08-01T10:32:40;4.75;4.75;3.75
73148;PMS7003;61346;48.930;2.266;2022-08-01T10:35:07;5.00;4.00;3.75
73148;PMS7003;61346;48.930;2.266;2022-08-01T10:37:34;3.50;3.50;3.00
73148;PMS7003;61346;48.930;2.266;2022-08-01T10:40:01;5.00;4.00;3.00
73148;PMS7003;61346;48.930;2.266;2022-08-01T10:42:29;3.75;3.00;2.50
73148;PMS7003;61346;48.930;2.266;2022-08-01T10:44:55;4.25;4.00;3.00
73148;PMS7003;61346;48.930;2.266;2022-08-01T10:47:29;3.75;3.75;2.75
73148;PMS7003;61346;48.930;2.266;2022-08-01T10:50:17;3.00;3.00;3.00
73148;PMS7003;61346;48.930;2.266;2022-08-01T10:53:03;4.00;4.00;3.75
73148;PMS7003;61346;48.930;2.266;2022-08-01T10:55:57;6.00;5.00;4.00
73148;PMS7003;61346;48.930;2.266;2022-08-01T11:03:43;5.50;4.75;3.00
73148;PMS7003;61346;48.930;2.266;2022-08-01T11:06:22;3.50;3.50;3.00
73148;PMS7003;61346;48.930;2.266;2022-08-01T11:08:51;3.00;3.00;3.00
73148;PMS7003;61346;48.930;2.266;2022-08-01T11:11:19;4.00;4.00;3.00
73148;PMS7003;61346;48.930;2.266;2022-08-01T11:16:29;6.25;5.00;4.00
73148;PMS7003;61346;48.930;2.266;2022-08-01T11:18:56;5.00;4.00;3.00
73148;PMS7003;61346;48.930;2.266;2022-08-01T11:21:22;6.00;5.25;4.00
73148;PMS7003;61346;48.930;2.266;2022-08-01T11:24:07;5.00;4.25;4.00
73148;PMS7003;61346;48.930;2.266;2022-08-01T11:26:33;7.00;6.50;4.00
73148;PMS7003;61346;48.930;2.266;2022-08-01T11:29:12;6.00;6.00;3.25
73148;PMS7003;61346;48.930;2.266;2022-08-01T11:31:39;3.25;2.00;2.00
73148;PMS7003;61346;48.930;2.266;2022-08-01T11:34:05;4.00;2.00;2.00
73148;PMS7003;61346;48.930;2.266;2022-08-01T11:36:31;4.25;4.00;3.25
73148;PMS7003;61346;48.930;2.266;2022-08-01T11:41:26;5.25;5.25;3.75
73148;PMS7003;61346;48.930;2.266;2022-08-01T11:43:58;6.00;5.25;4.00
73148;PMS7003;61346;48.930;2.266;2022-08-01T11:49:35;5.50;5.50;3.50
73148;PMS7003;61346;48.930;2.266;2022-08-01T11:52:23;4.00;2.50;2.50
73148;PMS7003;61346;48.930;2.266;2022-08-01T11:54:53;5.00;5.00;3.75
73148;PMS7003;61346;48.930;2.266;2022-08-01T11:57:21;4.25;3.25;3.00
73148;PMS7003;61346;48.930;2.266;2022-08-01T11:59:52;6.50;5.50;4.25
73148;PMS7003;61346;48.930;2.266;2022-08-01T12:02:24;5.00;5.00;4.00
73148;PMS7003;61346;48.930;2.266;2022-08-01T12:07:33;5.75;5.75;4.00
73148;PMS7003;61346;48.930;2.266;2022-08-01T12:10:08;4.50;4.50;3.00
73148;PMS7003;61346;48.930;2.266;2022-08-01T12:12:43;5.50;5.50;4.00
73148;PMS7003;61346;48.930;2.266;2022-08-01T12:15:20;7.75;7.00;4.00
73148;PMS7003;61346;48.930;2.266;2022-08-01T12:17:54;4.25;4.00;3.50
73148;PMS7003;61346;48.930;2.266;2022-08-01T12:20:22;4.25;4.25;3.00
73148;PMS7003;61346;48.930;2.266;2022-08-01T12:22:52;7.50;6.50;4.50
73148;PMS7003;61346;48.930;2.266;2022-08-01T12:25:19;6.75;6.75;4.50
73148;PMS7003;61346;48.930;2.266;2022-08-01T12:27:46;3.75;3.25;2.50
73148;PMS7003;61346;48.930;2.266;2022-08-01T12:30:14;4.50;3.50;3.25
73148;PMS7003;61346;48.930;2.266;2022-08-01T12:32:45;3.00;2.25;2.25
73148;PMS7003;61346;48.930;2.266;2022-08-01T12:35:17;4.25;4.00;4.00
73148;PMS7003;61346;48.930;2.266;2022-08-01T12:37:47;5.50;4.00;4.00
73148;PMS7003;61346;48.930;2.266;2022-08-01T12:42:50;4.50;3.50;3.00
73148;PMS7003;61346;48.930;2.266;2022-08-01T12:45:24;5.00;5.00;3.75
73148;PMS7003;61346;48.930;2.266;2022-08-01T12:47:52;4.00;4.00;3.00
73148;PMS7003;61346;48.930;2.266;2022-08-01T12:50:19;3.25;3.25;2.25
73148;PMS7003;61346;48.930;2.266;2022-08-01T12:52:47;5.00;5.00;3.75
73148;PMS7003;61346;48.930;2.266;2022-08-01T12:55:20;4.50;3.00;2.75
73148;PMS7003;61346;48.930;2.266;2022-08-01T12:57:48;3.75;3.75;3.00
73148;PMS7003;61346;48.930;2.266;2022-08-01T13:00:24;3.75;3.75;2.25
73148;PMS7003;61346;48.930;2.266;2022-08-01T13:03:02;4.00;4.00;3.00
73148;PMS7003;61346;48.930;2.266;2022-08-01T13:05:28;4.75;4.75;3.00
73148;PMS7003;61346;48.930;2.266;2022-08-01T13:08:16;5.00;4.00;3.25
73148;PMS7003;61346;48.930;2.266;2022-08-01T13:10:43;6.00;4.50;4.00
73148;PMS7003;61346;48.930;2.266;2022-08-01T13:13:09;4.75;4.75;3.25
73148;PMS7003;61346;48.930;2.266;2022-08-01T13:15:39;5.00;5.00;3.75
73148;PMS7003;61346;48.930;2.266;2022-08-01T13:18:27;5.50;5.50;3.50
73148;PMS7003;61346;48.930;2.266;2022-08-01T13:23:40;17.75;16.75;12.25
73148;PMS7003;61346;48.930;2.266;2022-08-01T13:26:40;8.75;8.00;7.00
73148;PMS7003;61346;48.930;2.266;2022-08-01T13:29:13;6.00;4.25;4.00
73148;PMS7003;61346;48.930;2.266;2022-08-01T13:31:41;6.75;6.00;5.00
73148;PMS7003;61346;48.930;2.266;2022-08-01T13:34:07;3.00;3.00;3.00
73148;PMS7003;61346;48.930;2.266;2022-08-01T13:36:34;5.75;4.75;4.00
73148;PMS7003;61346;48.930;2.266;2022-08-01T13:39:00;5.75;5.75;3.00
73148;PMS7003;61346;48.930;2.266;2022-08-01T13:41:46;3.50;3.50;3.00
73148;PMS7003;61346;48.930;2.266;2022-08-01T13:44:12;4.25;4.25;3.00
73148;PMS7003;61346;48.930;2.266;2022-08-01T13:46:38;3.00;3.00;3.00
73148;PMS7003;61346;48.930;2.266;2022-08-01T13:49:05;4.25;4.25;4.00
73148;PMS7003;61346;48.930;2.266;2022-08-01T13:51:31;5.00;5.00;3.00
73148;PMS7003;61346;48.930;2.266;2022-08-01T13:53:57;3.75;3.75;3.00
73148;PMS7003;61346;48.930;2.266;2022-08-01T13:56:23;4.50;4.50;3.50
73148;PMS7003;61346;48.930;2.266;2022-08-01T13:58:49;3.00;3.00;2.50
73148;PMS7003;61346;48.930;2.266;2022-08-01T14:01:15;5.00;5.00;3.00
73148;PMS7003;61346;48.930;2.266;2022-08-01T14:03:41;4.50;4.50;3.00
73148;PMS7003;61346;48.930;2.266;2022-08-01T14:06:06;3.25;3.25;3.00
73148;PMS7003;61346;48.930;2.266;2022-08-01T14:08:32;4.00;4.00;3.00
73148;PMS7003;61346;48.930;2.266;2022-08-01T14:10:57;5.25;5.25;4.25
73148;PMS7003;61346;48.930;2.266;2022-08-01T14:13:26;5.00;4.00;3.00
73148;PMS7003;61346;48.930;2.266;2022-08-01T14:15:53;4.50;3.00;2.00
73148;PMS7003;61346;48.930;2.266;2022-08-01T14:18:22;4.00;4.00;3.00
73148;PMS7003;61346;48.930;2.266;2022-08-01T14:20:47;3.75;3.75;2.50
73148;PMS7003;61346;48.930;2.266;2022-08-01T14:23:12;3.00;3.00;2.00
73148;PMS7003;61346;48.930;2.266;2022-08-01T14:25:38;3.00;3.00;3.00
73148;PMS7003;61346;48.930;2.266;2022-08-01T14:28:05;3.00;2.00;2.00
73148;PMS7003;61346;48.930;2.266;2022-08-01T14:30:31;5.00;5.00;3.50
73148;PMS7003;61346;48.930;2.266;2022-08-01T14:32:57;4.00;4.00;3.25
73148;PMS7003;61346;48.930;2.266;2022-08-01T14:35:22;4.00;4.00;3.00
73148;PMS7003;61346;48.930;2.266;2022-08-01T14:37:48;4.25;4.25;3.00
73148;PMS7003;61346;48.930;2.266;2022-08-01T14:40:13;4.00;4.00;3.00
73148;PMS7003;61346;48.930;2.266;2022-08-01T14:42:38;4.25;4.25;2.25
73148;PMS7003;61346;48.930;2.266;2022-08-01T14:45:05;3.00;3.00;2.00
73148;PMS7003;61346;48.930;2.266;2022-08-01T14:47:37;2.75;2.75;2.25
73148;PMS7003;61346;48.930;2.266;2022-08-01T14:50:05;3.50;3.50;3.00
73148;PMS7003;61346;48.930;2.266;2022-08-01T14:52:32;4.25;4.25;2.50
73148;PMS7003;61346;48.930;2.266;2022-08-01T14:54:58;3.00;3.00;3.00
73148;PMS7003;61346;48.930;2.266;2022-08-01T15:00:32;4.75;4.75;2.50
73148;PMS7003;61346;48.930;2.266;2022-08-01T15:03:01;4.00;4.00;3.00
73148;PMS7003;61346;48.930;2.266;2022-08-01T15:05:39;2.75;2.75;2.00
73148;PMS7003;61346;48.930;2.266;2022-08-01T15:08:12;2.00;2.00;2.00
73148;PMS7003;61346;48.930;2.266;2022-08-01T15:10:37;5.00;4.00;3.00
73148;PMS7003;61346;48.930;2.266;2022-08-01T15:13:03;4.25;3.00;3.00